Time;durP1;ratioP1;P1;durP2;ratioP2;P2;SDS_P1;SDS_P2;PMS_P1;PMS_P2;Temp;Humidity;BMP_temperature;BMP_pressure;BME280_temperature;BME280_humidity;BME280_pressure;Samples;Min_cycle;Max_cycle;Signal;HPM_P1;HPM_P2
2021/09/02 00:05:41;;;;;;;2.72;0.85;;;16.40;99.90;;;;;;20539501;28;20053;-79
2021/09/02 00:15:42;;;;;;;3.60;0.93;;;16.40;99.90;;;;;;20567619;28;20038;-79
2021/09/02 00:25:43;;;;;;;4.35;1.35;;;16.30;99.90;;;;;;20533894;28;20048;-80
2021/09/02 00:35:45;;;;;;;2.13;0.75;;;16.40;99.90;;;;;;20551680;28;20055;-80
2021/09/02 00:45:46;;;;;;;8.18;1.40;;;16.30;99.90;;;;;;20559713;28;20032;-80
2021/09/02 00:55:48;;;;;;;3.83;1.13;;;16.20;99.90;;;;;;20502131;28;20053;-79
2021/09/02 01:05:52;;;;;;;3.15;0.90;;;16.20;99.90;;;;;;20540306;28;20034;-79
2021/09/02 01:15:53;;;;;;;2.20;0.70;;;16.20;99.90;;;;;;20551203;28;20045;-80
2021/09/02 01:25:54;;;;;;;2.30;0.77;;;16.20;99.90;;;;;;20549025;28;20034;-80
2021/09/02 01:35:55;;;;;;;2.08;0.80;;;16.20;99.90;;;;;;20522396;28;20516;-80
2021/09/02 01:45:56;;;;;;;2.33;0.70;;;16.20;99.90;;;;;;20559017;28;20035;-80
2021/09/02 01:55:57;;;;;;;2.05;0.73;;;16.20;99.90;;;;;;20568903;28;20051;-80
2021/09/02 02:05:58;;;;;;;1.73;0.65;;;16.20;99.90;;;;;;20573498;28;20045;-79
2021/09/02 02:16:00;;;;;;;3.25;0.70;;;16.20;99.90;;;;;;20544657;28;20046;-80
2021/09/02 02:26:01;;;;;;;1.65;0.43;;;16.10;99.90;;;;;;20565749;28;20030;-80
2021/09/02 02:36:02;;;;;;;1.05;0.32;;;16.10;99.90;;;;;;20595630;28;20059;-79
2021/09/02 02:46:03;;;;;;;2.47;1.00;;;16.10;99.90;;;;;;20481136;28;20042;-80
2021/09/02 02:56:05;;;;;;;2.95;1.05;;;16.10;99.90;;;;;;20497333;28;20049;-80
2021/09/02 03:06:08;;;;;;;3.67;0.63;;;16.10;99.90;;;;;;20544868;28;20384;-80
2021/09/02 03:16:10;;;;;;;1.95;0.65;;;16.00;99.90;;;;;;20520301;28;20080;-78
2021/09/02 03:26:11;;;;;;;2.10;0.63;;;16.00;99.90;;;;;;20490544;28;20045;-79
2021/09/02 03:36:12;;;;;;;1.88;0.80;;;15.90;99.90;;;;;;20462585;28;20436;-79
2021/09/02 03:46:13;;;;;;;2.67;1.08;;;15.90;99.90;;;;;;20512236;28;20057;-79
2021/09/02 03:56:14;;;;;;;2.30;0.73;;;15.90;99.90;;;;;;20467105;28;20047;-79
2021/09/02 04:06:16;;;;;;;3.83;1.23;;;15.80;99.90;;;;;;20473894;28;20525;-79
2021/09/02 04:16:17;;;;;;;1.90;0.85;;;15.80;99.90;;;;;;20471668;28;20612;-79
2021/09/02 04:26:19;;;;;;;3.38;1.02;;;15.70;99.90;;;;;;20467598;28;20039;-79
2021/09/02 04:36:20;;;;;;;4.20;1.00;;;15.80;99.90;;;;;;20484453;28;20535;-79
2021/09/02 04:46:22;;;;;;;2.35;1.00;;;15.70;99.90;;;;;;20510746;28;20048;-79
2021/09/02 04:56:23;;;;;;;2.45;0.85;;;15.70;99.90;;;;;;20530999;28;20054;-80
2021/09/02 05:06:24;;;;;;;4.28;0.88;;;15.70;99.90;;;;;;20521017;28;20032;-79
2021/09/02 05:16:25;;;;;;;2.03;0.80;;;15.70;99.90;;;;;;20530110;28;20962;-79
2021/09/02 05:26:26;;;;;;;2.63;1.13;;;15.70;99.90;;;;;;20468230;28;20486;-80
2021/09/02 05:36:27;;;;;;;3.38;0.82;;;15.70;99.90;;;;;;20568907;28;20540;-79
2021/09/02 05:46:28;;;;;;;4.05;1.42;;;15.80;99.90;;;;;;20524193;28;20039;-79
2021/09/02 05:56:29;;;;;;;4.15;1.10;;;15.80;99.90;;;;;;20493402;28;20058;-80
2021/09/02 06:06:30;;;;;;;2.47;0.98;;;15.80;99.90;;;;;;20527914;28;20047;-80
2021/09/02 06:16:31;;;;;;;3.15;1.20;;;15.80;99.90;;;;;;20502351;28;20412;-79
2021/09/02 06:26:32;;;;;;;3.83;1.25;;;15.80;99.90;;;;;;20492183;28;20039;-79
2021/09/02 06:36:34;;;;;;;1.92;0.93;;;15.90;99.90;;;;;;20518139;28;20041;-79
2021/09/02 06:46:35;;;;;;;3.08;1.40;;;16.10;99.90;;;;;;20541957;28;20044;-79
2021/09/02 06:56:36;;;;;;;1.70;0.90;;;16.20;99.90;;;;;;20605246;28;20714;-79
2021/09/02 07:06:37;;;;;;;2.72;0.93;;;16.30;99.90;;;;;;20566965;28;20034;-78
2021/09/02 07:16:38;;;;;;;3.95;1.27;;;16.50;99.90;;;;;;20561610;28;20054;-78
2021/09/02 07:26:39;;;;;;;3.25;1.13;;;16.70;99.90;;;;;;20598473;28;20039;-78
2021/09/02 07:36:40;;;;;;;3.53;1.42;;;16.80;99.90;;;;;;20483724;28;20367;-78
2021/09/02 07:46:42;;;;;;;3.45;1.00;;;17.00;99.90;;;;;;20531737;28;20040;-78
2021/09/02 07:56:43;;;;;;;6.97;1.33;;;17.10;99.90;;;;;;20575572;28;21638;-78
2021/09/02 08:06:44;;;;;;;5.45;1.67;;;17.20;99.90;;;;;;20533771;28;20042;-78
2021/09/02 08:16:45;;;;;;;2.95;1.40;;;17.30;99.90;;;;;;20514362;28;20034;-78
2021/09/02 08:26:46;;;;;;;2.95;1.35;;;17.40;99.90;;;;;;20549936;28;20082;-79
2021/09/02 08:36:47;;;;;;;2.60;1.15;;;17.50;99.90;;;;;;20538212;28;20062;-78
2021/09/02 08:46:50;;;;;;;3.92;1.55;;;17.40;99.90;;;;;;20547189;28;20038;-79
2021/09/02 08:56:51;;;;;;;3.70;1.17;;;17.60;99.90;;;;;;20523505;28;20043;-78
2021/09/02 09:06:52;;;;;;;3.70;1.33;;;17.80;99.90;;;;;;20536875;28;20039;-79
2021/09/02 09:16:56;;;;;;;3.25;1.17;;;18.00;99.90;;;;;;20542766;28;20062;-78
2021/09/02 09:27:07;;;;;;;3.50;1.30;;;18.20;99.90;;;;;;20548076;28;20038;-78
2021/09/02 09:37:08;;;;;;;4.25;1.85;;;18.40;99.90;;;;;;20528557;28;20039;-78
2021/09/02 09:47:12;;;;;;;2.95;1.17;;;18.50;99.90;;;;;;20576284;28;20050;-79
2021/09/02 09:57:14;;;;;;;6.15;1.83;;;18.70;99.90;;;;;;20532086;28;20497;-79
2021/09/02 10:07:19;;;;;;;3.00;1.38;;;18.80;99.90;;;;;;20535297;28;20370;-81
2021/09/02 10:17:20;;;;;;;7.07;1.40;;;19.00;99.90;;;;;;20560939;28;20043;-80
2021/09/02 10:27:21;;;;;;;4.43;1.45;;;19.40;99.90;;;;;;20583591;28;20043;-78
2021/09/02 10:37:35;;;;;;;6.97;1.48;;;19.80;99.90;;;;;;20484509;28;21517;-80
2021/09/02 10:47:44;;;;;;;4.50;1.85;;;19.60;99.90;;;;;;20544261;28;20039;-78
2021/09/02 10:57:45;;;;;;;4.72;1.65;;;19.20;99.90;;;;;;20523695;28;20039;-78
2021/09/02 11:07:48;;;;;;;3.58;1.52;;;19.90;99.90;;;;;;20495765;28;20158;-78
2021/09/02 11:17:54;;;;;;;2.65;1.10;;;20.40;99.90;;;;;;20538812;28;20051;-78
2021/09/02 11:27:59;;;;;;;5.10;1.30;;;21.10;99.90;;;;;;20551875;28;20079;-78
2021/09/02 11:38:00;;;;;;;3.25;1.33;;;21.40;99.90;;;;;;20527629;28;20047;-78
2021/09/02 11:48:03;;;;;;;3.90;1.42;;;21.90;99.90;;;;;;20501231;28;20043;-78
2021/09/02 11:58:06;;;;;;;3.15;1.73;;;21.50;99.90;;;;;;20574770;28;20035;-78
2021/09/02 12:08:12;;;;;;;5.15;2.33;;;20.80;99.90;;;;;;20546373;28;20036;-78
2021/09/02 12:18:13;;;;;;;4.05;1.90;;;20.30;99.90;;;;;;20542232;28;20043;-78
2021/09/02 12:28:14;;;;;;;4.53;1.42;;;21.10;99.90;;;;;;20504312;28;20065;-78
2021/09/02 12:38:36;;;;;;;3.65;1.23;;;20.30;99.90;;;;;;20512277;28;20050;-78
2021/09/02 12:48:37;;;;;;;4.82;1.77;;;19.90;99.90;;;;;;20540688;28;20292;-78
2021/09/02 12:58:38;;;;;;;3.08;1.45;;;20.80;99.90;;;;;;20517415;28;20049;-78
2021/09/02 13:08:39;;;;;;;6.47;1.65;;;21.10;99.90;;;;;;20555028;28;20043;-78
2021/09/02 13:18:42;;;;;;;5.82;2.10;;;21.90;99.90;;;;;;20520642;28;20142;-78
2021/09/02 13:28:43;;;;;;;4.07;1.40;;;22.10;99.90;;;;;;20542864;28;20050;-78
2021/09/02 13:38:44;;;;;;;5.88;1.30;;;21.50;99.90;;;;;;20470075;28;20399;-78
2021/09/02 13:48:45;;;;;;;9.27;2.00;;;21.90;99.90;;;;;;20513889;28;20054;-78
2021/09/02 13:58:46;;;;;;;3.72;1.65;;;22.00;99.90;;;;;;20480914;28;20398;-78
2021/09/02 14:08:48;;;;;;;4.60;1.80;;;21.90;99.90;;;;;;20542458;28;20403;-78
2021/09/02 14:18:49;;;;;;;5.32;2.05;;;21.50;99.90;;;;;;20514959;28;20038;-78
2021/09/02 14:28:50;;;;;;;5.65;1.60;;;21.00;99.90;;;;;;20501405;28;20036;-78
2021/09/02 14:38:51;;;;;;;4.20;1.92;;;20.90;99.90;;;;;;20489452;28;20058;-78
2021/09/02 14:48:52;;;;;;;4.15;1.50;;;20.60;99.90;;;;;;20483525;28;20039;-78
2021/09/02 14:58:53;;;;;;;6.50;1.38;;;20.20;99.90;;;;;;20500118;28;20665;-78
2021/09/02 15:08:54;;;;;;;4.82;1.50;;;20.10;99.90;;;;;;20484853;28;20033;-78
2021/09/02 15:18:55;;;;;;;6.57;2.17;;;20.00;99.90;;;;;;20461331;28;20059;-78
2021/09/02 15:28:56;;;;;;;4.50;1.73;;;19.80;99.90;;;;;;20490407;28;20494;-78
2021/09/02 15:38:58;;;;;;;3.65;1.55;;;19.70;99.90;;;;;;20502960;28;20053;-78
2021/09/02 15:48:59;;;;;;;3.78;1.70;;;19.60;99.90;;;;;;20474177;28;20031;-78
2021/09/02 15:59:00;;;;;;;4.47;1.80;;;19.50;99.90;;;;;;20507622;28;20459;-78
2021/09/02 16:09:01;;;;;;;3.83;1.80;;;19.30;99.90;;;;;;20492223;28;20545;-78
2021/09/02 16:19:03;;;;;;;5.07;1.25;;;19.00;99.90;;;;;;20531550;28;20047;-79
2021/09/02 16:29:04;;;;;;;5.32;1.58;;;19.00;99.90;;;;;;20507478;28;20042;-79
2021/09/02 16:39:06;;;;;;;6.22;1.83;;;18.80;99.90;;;;;;20498060;28;20054;-79
2021/09/02 16:49:07;;;;;;;5.05;2.33;;;18.70;99.90;;;;;;20531627;28;20038;-79
2021/09/02 16:59:08;;;;;;;5.68;1.63;;;18.50;99.90;;;;;;20540383;28;20042;-79
2021/09/02 17:09:09;;;;;;;3.53;1.75;;;18.40;99.90;;;;;;20528485;28;20047;-79
2021/09/02 17:19:10;;;;;;;4.40;1.90;;;18.20;99.90;;;;;;20535922;28;20781;-79
2021/09/02 17:29:11;;;;;;;6.40;1.55;;;18.00;99.90;;;;;;20496322;28;20054;-79
2021/09/02 17:39:12;;;;;;;4.90;1.70;;;17.90;99.90;;;;;;20547926;28;20038;-79
2021/09/02 17:49:13;;;;;;;4.93;1.42;;;17.80;99.90;;;;;;20526163;28;20055;-79
2021/09/02 17:59:15;;;;;;;4.65;1.98;;;17.70;99.90;;;;;;20592244;28;20072;-79
2021/09/02 18:09:16;;;;;;;3.22;1.40;;;17.50;99.90;;;;;;20566000;28;20041;-79
2021/09/02 18:19:17;;;;;;;5.55;1.58;;;17.40;99.90;;;;;;20567822;28;20058;-79
2021/09/02 18:29:18;;;;;;;6.45;1.48;;;17.30;99.90;;;;;;20538769;28;21311;-79
2021/09/02 18:39:19;;;;;;;6.38;1.58;;;17.20;99.90;;;;;;20575729;28;20241;-79
2021/09/02 18:49:20;;;;;;;5.40;2.13;;;17.10;99.90;;;;;;20548895;28;20050;-79
2021/09/02 18:59:22;;;;;;;7.60;1.85;;;17.00;99.90;;;;;;20554536;28;20495;-79
2021/09/02 19:09:31;;;;;;;9.43;2.28;;;16.90;99.90;;;;;;20501599;28;20502;-79
2021/09/02 19:19:39;;;;;;;5.07;1.95;;;16.80;99.90;;;;;;20608042;28;20055;-79
2021/09/02 19:29:46;;;;;;;6.68;2.55;;;16.60;99.90;;;;;;20551048;28;20105;-79
2021/09/02 19:39:50;;;;;;;5.50;2.37;;;16.50;99.90;;;;;;20529180;28;20043;-79
2021/09/02 19:49:52;;;;;;;7.20;1.83;;;16.30;99.90;;;;;;20516844;28;20049;-79
2021/09/02 20:00:02;;;;;;;5.90;2.20;;;16.20;99.90;;;;;;20493017;28;20035;-78
2021/09/02 20:10:06;;;;;;;6.68;2.75;;;16.10;99.90;;;;;;20504356;28;20065;-79
2021/09/02 20:20:08;;;;;;;5.20;1.75;;;16.00;99.90;;;;;;20480290;28;20037;-79
2021/09/02 20:30:10;;;;;;;4.75;2.03;;;15.90;99.90;;;;;;20528220;28;20112;-79
2021/09/02 20:40:12;;;;;;;5.68;2.05;;;15.80;99.90;;;;;;20470016;28;20069;-79
2021/09/02 20:50:19;;;;;;;3.92;1.55;;;15.70;99.90;;;;;;20443962;28;20047;-79
2021/09/02 21:00:21;;;;;;;4.07;1.37;;;15.70;99.90;;;;;;20509955;28;20043;-78
2021/09/02 21:10:24;;;;;;;4.95;2.22;;;15.60;99.90;;;;;;20477999;28;20065;-79
2021/09/02 21:20:25;;;;;;;5.72;2.53;;;15.60;99.90;;;;;;20463468;28;20053;-79
2021/09/02 21:30:45;;;;;;;6.20;2.35;;;15.50;99.90;;;;;;20467488;28;20062;-79
2021/09/02 21:40:49;;;;;;;7.75;2.30;;;15.50;99.90;;;;;;20515443;28;20038;-79
2021/09/02 21:50:51;;;;;;;5.00;1.60;;;15.40;99.90;;;;;;20604437;28;20046;-78
2021/09/02 22:00:52;;;;;;;7.13;2.55;;;15.30;99.90;;;;;;20595448;28;20045;-79
2021/09/02 22:10:56;;;;;;;6.88;2.55;;;15.30;99.90;;;;;;20577154;28;20047;-80
2021/09/02 22:21:02;;;;;;;6.38;2.58;;;15.20;99.90;;;;;;20592180;28;20056;-78
2021/09/02 22:31:05;;;;;;;14.80;2.83;;;15.10;99.90;;;;;;20594802;28;20050;-79
2021/09/02 22:41:07;;;;;;;8.05;3.00;;;15.00;99.90;;;;;;20606315;28;20060;-79
2021/09/02 22:51:08;;;;;;;8.50;3.25;;;15.00;99.90;;;;;;20606003;28;20058;-79
2021/09/02 23:01:10;;;;;;;4.00;2.03;;;15.00;99.90;;;;;;20614219;28;20380;-79
2021/09/02 23:11:24;;;;;;;6.68;2.20;;;14.80;99.90;;;;;;20603157;28;20058;-80
2021/09/02 23:21:27;;;;;;;6.82;2.53;;;14.80;99.90;;;;;;20608908;28;21794;-79
2021/09/02 23:31:29;;;;;;;8.13;2.15;;;14.70;99.90;;;;;;20620069;28;20049;-79
2021/09/02 23:41:33;;;;;;;9.02;2.45;;;14.60;99.90;;;;;;20636649;28;20055;-79
2021/09/02 23:51:35;;;;;;;10.60;3.03;;;14.60;99.90;;;;;;20599019;28;20059;-79
